sensor_id;sensor_type;location;lat;lon;timestamp;P1;durP1;ratioP1;P2;durP2;ratioP2
78443;SDS011;67739;52.986;8.894;2023-11-21T00:01:52;12.90;;;3.53;;
78443;SDS011;67739;52.986;8.894;2023-11-21T00:04:17;11.95;;;2.50;;
78443;SDS011;67739;52.986;8.894;2023-11-21T00:06:42;7.30;;;2.17;;
78443;SDS011;67739;52.986;8.894;2023-11-21T00:09:08;10.27;;;2.95;;
78443;SDS011;67739;52.986;8.894;2023-11-21T00:11:33;10.45;;;3.15;;
78443;SDS011;67739;52.986;8.894;2023-11-21T00:13:59;14.40;;;3.50;;
78443;SDS011;67739;52.986;8.894;2023-11-21T00:16:24;9.15;;;2.25;;
78443;SDS011;67739;52.986;8.894;2023-11-21T00:18:50;9.15;;;2.38;;
78443;SDS011;67739;52.986;8.894;2023-11-21T00:21:16;10.20;;;3.40;;
78443;SDS011;67739;52.986;8.894;2023-11-21T00:23:41;9.23;;;3.75;;
78443;SDS011;67739;52.986;8.894;2023-11-21T00:26:07;9.73;;;3.90;;
78443;SDS011;67739;52.986;8.894;2023-11-21T00:28:32;8.60;;;2.35;;
78443;SDS011;67739;52.986;8.894;2023-11-21T00:30:58;9.95;;;3.30;;
78443;SDS011;67739;52.986;8.894;2023-11-21T00:33:23;8.45;;;2.42;;
78443;SDS011;67739;52.986;8.894;2023-11-21T00:35:50;8.60;;;3.28;;
78443;SDS011;67739;52.986;8.894;2023-11-21T00:38:15;12.25;;;4.55;;
78443;SDS011;67739;52.986;8.894;2023-11-21T00:40:44;7.28;;;2.78;;
78443;SDS011;67739;52.986;8.894;2023-11-21T00:43:09;7.75;;;2.35;;
78443;SDS011;67739;52.986;8.894;2023-11-21T00:45:35;6.70;;;2.80;;
78443;SDS011;67739;52.986;8.894;2023-11-21T00:48:01;8.68;;;2.63;;
78443;SDS011;67739;52.986;8.894;2023-11-21T00:50:27;7.88;;;2.65;;
78443;SDS011;67739;52.986;8.894;2023-11-21T00:52:52;6.38;;;2.47;;
78443;SDS011;67739;52.986;8.894;2023-11-21T00:55:18;8.30;;;3.10;;
78443;SDS011;67739;52.986;8.894;2023-11-21T00:57:43;9.23;;;2.58;;
78443;SDS011;67739;52.986;8.894;2023-11-21T01:00:08;6.57;;;2.33;;
78443;SDS011;67739;52.986;8.894;2023-11-21T01:02:42;10.20;;;3.20;;
78443;SDS011;67739;52.986;8.894;2023-11-21T01:05:10;8.15;;;2.28;;
78443;SDS011;67739;52.986;8.894;2023-11-21T01:07:35;8.25;;;2.17;;
78443;SDS011;67739;52.986;8.894;2023-11-21T01:10:02;8.23;;;3.05;;
78443;SDS011;67739;52.986;8.894;2023-11-21T01:12:34;9.07;;;3.35;;
78443;SDS011;67739;52.986;8.894;2023-11-21T01:15:01;8.10;;;2.53;;
78443;SDS011;67739;52.986;8.894;2023-11-21T01:17:27;8.93;;;3.33;;
78443;SDS011;67739;52.986;8.894;2023-11-21T01:19:52;9.18;;;3.35;;
78443;SDS011;67739;52.986;8.894;2023-11-21T01:22:17;10.95;;;3.17;;
78443;SDS011;67739;52.986;8.894;2023-11-21T01:24:47;10.25;;;3.28;;
78443;SDS011;67739;52.986;8.894;2023-11-21T01:27:12;9.05;;;2.90;;
78443;SDS011;67739;52.986;8.894;2023-11-21T01:29:37;8.23;;;2.97;;
78443;SDS011;67739;52.986;8.894;2023-11-21T01:32:03;6.78;;;2.05;;
78443;SDS011;67739;52.986;8.894;2023-11-21T01:34:28;12.90;;;3.92;;
78443;SDS011;67739;52.986;8.894;2023-11-21T01:36:54;10.90;;;3.47;;
78443;SDS011;67739;52.986;8.894;2023-11-21T01:39:19;8.00;;;3.25;;
78443;SDS011;67739;52.986;8.894;2023-11-21T01:41:48;9.98;;;2.83;;
78443;SDS011;67739;52.986;8.894;2023-11-21T01:44:15;12.55;;;3.75;;
78443;SDS011;67739;52.986;8.894;2023-11-21T01:46:42;7.03;;;3.30;;
78443;SDS011;67739;52.986;8.894;2023-11-21T01:49:07;9.77;;;3.92;;
78443;SDS011;67739;52.986;8.894;2023-11-21T01:51:34;14.73;;;3.85;;
78443;SDS011;67739;52.986;8.894;2023-11-21T01:54:01;9.88;;;3.22;;
78443;SDS011;67739;52.986;8.894;2023-11-21T01:56:30;9.95;;;3.70;;
78443;SDS011;67739;52.986;8.894;2023-11-21T01:58:56;9.77;;;2.67;;
78443;SDS011;67739;52.986;8.894;2023-11-21T02:01:22;11.68;;;4.10;;
78443;SDS011;67739;52.986;8.894;2023-11-21T02:03:47;9.60;;;3.95;;
78443;SDS011;67739;52.986;8.894;2023-11-21T02:06:12;8.20;;;3.42;;
78443;SDS011;67739;52.986;8.894;2023-11-21T02:08:38;7.82;;;3.40;;
78443;SDS011;67739;52.986;8.894;2023-11-21T02:11:04;11.35;;;3.88;;
78443;SDS011;67739;52.986;8.894;2023-11-21T02:13:30;7.68;;;1.90;;
78443;SDS011;67739;52.986;8.894;2023-11-21T02:15:56;10.77;;;3.63;;
78443;SDS011;67739;52.986;8.894;2023-11-21T02:18:23;8.13;;;2.97;;
78443;SDS011;67739;52.986;8.894;2023-11-21T02:20:48;10.23;;;3.67;;
78443;SDS011;67739;52.986;8.894;2023-11-21T02:23:14;9.55;;;3.83;;
78443;SDS011;67739;52.986;8.894;2023-11-21T02:25:39;9.68;;;3.80;;
78443;SDS011;67739;52.986;8.894;2023-11-21T02:28:04;9.95;;;3.35;;
78443;SDS011;67739;52.986;8.894;2023-11-21T02:30:31;12.73;;;4.35;;
78443;SDS011;67739;52.986;8.894;2023-11-21T02:32:57;12.52;;;3.72;;
78443;SDS011;67739;52.986;8.894;2023-11-21T02:35:23;10.00;;;4.07;;
78443;SDS011;67739;52.986;8.894;2023-11-21T02:37:50;7.85;;;2.97;;
78443;SDS011;67739;52.986;8.894;2023-11-21T02:40:16;9.93;;;3.47;;
78443;SDS011;67739;52.986;8.894;2023-11-21T02:42:48;9.05;;;3.25;;
78443;SDS011;67739;52.986;8.894;2023-11-21T02:45:15;11.02;;;3.63;;
78443;SDS011;67739;52.986;8.894;2023-11-21T02:47:42;11.82;;;3.20;;
78443;SDS011;67739;52.986;8.894;2023-11-21T02:50:08;8.70;;;3.58;;
78443;SDS011;67739;52.986;8.894;2023-11-21T02:52:34;10.23;;;4.03;;
78443;SDS011;67739;52.986;8.894;2023-11-21T02:55:00;17.10;;;4.82;;
78443;SDS011;67739;52.986;8.894;2023-11-21T02:57:26;9.00;;;3.63;;
78443;SDS011;67739;52.986;8.894;2023-11-21T02:59:51;13.75;;;5.03;;
78443;SDS011;67739;52.986;8.894;2023-11-21T03:02:17;14.98;;;4.07;;
78443;SDS011;67739;52.986;8.894;2023-11-21T03:04:42;11.15;;;4.18;;
78443;SDS011;67739;52.986;8.894;2023-11-21T03:07:08;12.95;;;4.45;;
78443;SDS011;67739;52.986;8.894;2023-11-21T03:09:34;9.65;;;3.38;;
78443;SDS011;67739;52.986;8.894;2023-11-21T03:12:00;10.07;;;4.07;;
78443;SDS011;67739;52.986;8.894;2023-11-21T03:14:25;10.90;;;4.05;;
78443;SDS011;67739;52.986;8.894;2023-11-21T03:16:50;10.10;;;4.25;;
78443;SDS011;67739;52.986;8.894;2023-11-21T03:19:16;10.35;;;3.88;;
78443;SDS011;67739;52.986;8.894;2023-11-21T03:21:42;10.02;;;3.40;;
78443;SDS011;67739;52.986;8.894;2023-11-21T03:24:07;8.25;;;3.63;;
78443;SDS011;67739;52.986;8.894;2023-11-21T03:26:33;14.10;;;4.47;;
78443;SDS011;67739;52.986;8.894;2023-11-21T03:28:58;13.15;;;3.70;;
78443;SDS011;67739;52.986;8.894;2023-11-21T03:31:24;10.60;;;3.40;;
78443;SDS011;67739;52.986;8.894;2023-11-21T03:33:49;8.45;;;3.78;;
78443;SDS011;67739;52.986;8.894;2023-11-21T03:36:14;10.70;;;3.67;;
78443;SDS011;67739;52.986;8.894;2023-11-21T03:38:40;10.38;;;3.65;;
78443;SDS011;67739;52.986;8.894;2023-11-21T03:41:06;9.90;;;3.88;;
78443;SDS011;67739;52.986;8.894;2023-11-21T03:43:32;11.55;;;4.25;;
78443;SDS011;67739;52.986;8.894;2023-11-21T03:45:57;10.50;;;5.45;;
78443;SDS011;67739;52.986;8.894;2023-11-21T03:48:22;9.20;;;3.92;;
78443;SDS011;67739;52.986;8.894;2023-11-21T03:50:48;13.40;;;3.88;;
78443;SDS011;67739;52.986;8.894;2023-11-21T03:53:13;6.93;;;3.10;;
78443;SDS011;67739;52.986;8.894;2023-11-21T03:55:39;10.13;;;3.63;;
78443;SDS011;67739;52.986;8.894;2023-11-21T03:58:04;12.35;;;4.22;;
78443;SDS011;67739;52.986;8.894;2023-11-21T04:00:29;14.70;;;5.35;;
78443;SDS011;67739;52.986;8.894;2023-11-21T04:02:55;9.57;;;4.05;;
78443;SDS011;67739;52.986;8.894;2023-11-21T04:05:20;12.13;;;4.65;;
78443;SDS011;67739;52.986;8.894;2023-11-21T04:07:49;10.55;;;3.95;;
78443;SDS011;67739;52.986;8.894;2023-11-21T04:10:16;10.85;;;2.97;;
78443;SDS011;67739;52.986;8.894;2023-11-21T04:12:42;7.18;;;2.50;;
78443;SDS011;67739;52.986;8.894;2023-11-21T04:15:08;6.70;;;2.40;;
78443;SDS011;67739;52.986;8.894;2023-11-21T04:17:34;6.72;;;2.03;;
78443;SDS011;67739;52.986;8.894;2023-11-21T04:20:00;7.88;;;2.72;;
78443;SDS011;67739;52.986;8.894;2023-11-21T04:22:25;8.02;;;2.25;;
78443;SDS011;67739;52.986;8.894;2023-11-21T04:24:51;7.00;;;2.30;;
78443;SDS011;67739;52.986;8.894;2023-11-21T04:27:16;7.43;;;3.50;;
78443;SDS011;67739;52.986;8.894;2023-11-21T04:29:45;7.47;;;1.60;;
78443;SDS011;67739;52.986;8.894;2023-11-21T04:32:10;5.43;;;1.67;;
78443;SDS011;67739;52.986;8.894;2023-11-21T04:34:35;6.53;;;2.03;;
78443;SDS011;67739;52.986;8.894;2023-11-21T04:37:01;7.28;;;2.70;;
78443;SDS011;67739;52.986;8.894;2023-11-21T04:39:26;5.28;;;1.33;;
78443;SDS011;67739;52.986;8.894;2023-11-21T04:41:52;5.38;;;1.55;;
78443;SDS011;67739;52.986;8.894;2023-11-21T04:44:17;8.43;;;2.10;;
78443;SDS011;67739;52.986;8.894;2023-11-21T04:46:42;11.25;;;3.03;;
78443;SDS011;67739;52.986;8.894;2023-11-21T04:49:08;6.20;;;1.20;;
78443;SDS011;67739;52.986;8.894;2023-11-21T04:51:34;7.03;;;2.05;;
78443;SDS011;67739;52.986;8.894;2023-11-21T04:53:59;5.85;;;1.88;;
78443;SDS011;67739;52.986;8.894;2023-11-21T04:56:24;6.20;;;1.60;;
78443;SDS011;67739;52.986;8.894;2023-11-21T04:58:50;6.32;;;2.00;;
78443;SDS011;67739;52.986;8.894;2023-11-21T05:01:15;7.45;;;1.85;;
78443;SDS011;67739;52.986;8.894;2023-11-21T05:03:41;7.40;;;1.92;;
78443;SDS011;67739;52.986;8.894;2023-11-21T05:06:09;5.05;;;1.42;;
78443;SDS011;67739;52.986;8.894;2023-11-21T05:08:34;7.75;;;1.33;;
78443;SDS011;67739;52.986;8.894;2023-11-21T05:11:02;8.45;;;2.03;;
78443;SDS011;67739;52.986;8.894;2023-11-21T05:13:27;6.47;;;1.40;;
78443;SDS011;67739;52.986;8.894;2023-11-21T05:15:54;5.40;;;1.80;;
78443;SDS011;67739;52.986;8.894;2023-11-21T05:18:20;6.22;;;1.70;;
78443;SDS011;67739;52.986;8.894;2023-11-21T05:20:46;4.88;;;1.52;;
78443;SDS011;67739;52.986;8.894;2023-11-21T05:23:12;6.13;;;2.17;;
78443;SDS011;67739;52.986;8.894;2023-11-21T05:25:37;6.53;;;1.73;;
78443;SDS011;67739;52.986;8.894;2023-11-21T05:28:03;8.30;;;2.53;;
78443;SDS011;67739;52.986;8.894;2023-11-21T05:30:29;6.25;;;1.85;;
78443;SDS011;67739;52.986;8.894;2023-11-21T05:32:54;7.55;;;1.90;;
78443;SDS011;67739;52.986;8.894;2023-11-21T05:35:19;7.57;;;1.90;;
78443;SDS011;67739;52.986;8.894;2023-11-21T05:37:46;5.65;;;1.80;;
78443;SDS011;67739;52.986;8.894;2023-11-21T05:40:11;9.00;;;2.08;;
78443;SDS011;67739;52.986;8.894;2023-11-21T05:42:38;7.85;;;1.85;;
78443;SDS011;67739;52.986;8.894;2023-11-21T05:45:04;6.43;;;2.08;;
78443;SDS011;67739;52.986;8.894;2023-11-21T05:47:41;8.13;;;2.83;;
78443;SDS011;67739;52.986;8.894;2023-11-21T05:50:10;7.30;;;2.17;;
78443;SDS011;67739;52.986;8.894;2023-11-21T05:55:05;6.97;;;2.45;;
78443;SDS011;67739;52.986;8.894;2023-11-21T05:57:32;7.22;;;3.05;;
78443;SDS011;67739;52.986;8.894;2023-11-21T05:59:59;9.90;;;2.85;;
78443;SDS011;67739;52.986;8.894;2023-11-21T06:02:24;8.48;;;3.72;;
78443;SDS011;67739;52.986;8.894;2023-11-21T06:04:50;9.00;;;2.88;;
78443;SDS011;67739;52.986;8.894;2023-11-21T06:07:16;12.13;;;3.17;;
78443;SDS011;67739;52.986;8.894;2023-11-21T06:09:41;10.23;;;3.40;;
78443;SDS011;67739;52.986;8.894;2023-11-21T06:12:07;8.02;;;2.78;;
78443;SDS011;67739;52.986;8.894;2023-11-21T06:14:32;6.82;;;2.28;;
78443;SDS011;67739;52.986;8.894;2023-11-21T06:17:00;7.18;;;1.73;;
78443;SDS011;67739;52.986;8.894;2023-11-21T06:19:25;7.13;;;2.47;;
78443;SDS011;67739;52.986;8.894;2023-11-21T06:21:51;7.30;;;2.90;;
78443;SDS011;67739;52.986;8.894;2023-11-21T06:24:16;10.38;;;2.80;;
78443;SDS011;67739;52.986;8.894;2023-11-21T06:26:41;9.18;;;2.58;;
78443;SDS011;67739;52.986;8.894;2023-11-21T06:29:07;8.77;;;2.72;;
78443;SDS011;67739;52.986;8.894;2023-11-21T06:31:32;8.18;;;2.00;;
78443;SDS011;67739;52.986;8.894;2023-11-21T06:33:58;7.88;;;2.28;;
78443;SDS011;67739;52.986;8.894;2023-11-21T06:36:24;6.90;;;2.30;;
78443;SDS011;67739;52.986;8.894;2023-11-21T06:38:51;8.02;;;2.90;;
78443;SDS011;67739;52.986;8.894;2023-11-21T06:41:16;7.05;;;2.08;;
78443;SDS011;67739;52.986;8.894;2023-11-21T06:43:42;6.63;;;2.72;;
78443;SDS011;67739;52.986;8.894;2023-11-21T06:46:11;6.97;;;3.22;;
78443;SDS011;67739;52.986;8.894;2023-11-21T06:48:36;7.63;;;2.67;;
78443;SDS011;67739;52.986;8.894;2023-11-21T06:51:03;6.05;;;2.47;;
78443;SDS011;67739;52.986;8.894;2023-11-21T06:53:29;9.15;;;2.85;;
78443;SDS011;67739;52.986;8.894;2023-11-21T06:55:54;6.80;;;2.58;;
78443;SDS011;67739;52.986;8.894;2023-11-21T06:58:20;7.45;;;2.05;;
78443;SDS011;67739;52.986;8.894;2023-11-21T07:00:45;8.52;;;2.60;;
78443;SDS011;67739;52.986;8.894;2023-11-21T07:03:13;7.82;;;2.40;;
78443;SDS011;67739;52.986;8.894;2023-11-21T07:05:39;7.72;;;2.60;;
78443;SDS011;67739;52.986;8.894;2023-11-21T07:08:04;8.57;;;2.45;;
78443;SDS011;67739;52.986;8.894;2023-11-21T07:10:29;8.02;;;2.50;;
78443;SDS011;67739;52.986;8.894;2023-11-21T07:12:54;7.47;;;2.65;;
78443;SDS011;67739;52.986;8.894;2023-11-21T07:15:22;8.32;;;3.58;;
78443;SDS011;67739;52.986;8.894;2023-11-21T07:17:47;10.18;;;3.40;;
78443;SDS011;67739;52.986;8.894;2023-11-21T07:20:13;8.00;;;3.08;;
78443;SDS011;67739;52.986;8.894;2023-11-21T07:22:38;7.07;;;2.97;;
78443;SDS011;67739;52.986;8.894;2023-11-21T07:25:04;7.30;;;2.75;;
78443;SDS011;67739;52.986;8.894;2023-11-21T07:27:30;9.55;;;2.97;;
78443;SDS011;67739;52.986;8.894;2023-11-21T07:29:55;6.78;;;2.75;;
78443;SDS011;67739;52.986;8.894;2023-11-21T07:32:20;6.57;;;2.53;;
78443;SDS011;67739;52.986;8.894;2023-11-21T07:34:46;6.55;;;2.90;;
78443;SDS011;67739;52.986;8.894;2023-11-21T07:37:11;9.65;;;3.53;;
78443;SDS011;67739;52.986;8.894;2023-11-21T07:39:37;10.68;;;2.85;;
78443;SDS011;67739;52.986;8.894;2023-11-21T07:42:06;6.90;;;2.70;;
78443;SDS011;67739;52.986;8.894;2023-11-21T07:44:32;7.35;;;2.63;;
78443;SDS011;67739;52.986;8.894;2023-11-21T07:46:57;10.88;;;3.25;;
78443;SDS011;67739;52.986;8.894;2023-11-21T07:49:25;7.53;;;2.92;;
78443;SDS011;67739;52.986;8.894;2023-11-21T07:51:51;9.40;;;3.65;;
78443;SDS011;67739;52.986;8.894;2023-11-21T07:54:17;5.95;;;2.53;;
78443;SDS011;67739;52.986;8.894;2023-11-21T07:56:42;6.15;;;2.67;;
78443;SDS011;67739;52.986;8.894;2023-11-21T07:59:08;9.65;;;3.83;;
78443;SDS011;67739;52.986;8.894;2023-11-21T08:01:33;8.57;;;3.92;;
78443;SDS011;67739;52.986;8.894;2023-11-21T08:03:59;7.88;;;2.28;;
78443;SDS011;67739;52.986;8.894;2023-11-21T08:06:28;8.93;;;3.58;;
78443;SDS011;67739;52.986;8.894;2023-11-21T08:08:54;8.25;;;2.58;;
78443;SDS011;67739;52.986;8.894;2023-11-21T08:11:19;7.47;;;2.50;;
78443;SDS011;67739;52.986;8.894;2023-11-21T08:13:46;9.52;;;3.95;;
78443;SDS011;67739;52.986;8.894;2023-11-21T08:16:11;10.13;;;3.33;;
78443;SDS011;67739;52.986;8.894;2023-11-21T08:18:37;8.27;;;3.22;;
78443;SDS011;67739;52.986;8.894;2023-11-21T08:21:02;8.25;;;3.10;;
78443;SDS011;67739;52.986;8.894;2023-11-21T08:23:29;7.80;;;2.50;;
78443;SDS011;67739;52.986;8.894;2023-11-21T08:25:54;7.22;;;2.97;;
78443;SDS011;67739;52.986;8.894;2023-11-21T08:28:20;8.80;;;3.30;;
78443;SDS011;67739;52.986;8.894;2023-11-21T08:30:48;7.97;;;3.08;;
78443;SDS011;67739;52.986;8.894;2023-11-21T08:33:13;7.55;;;3.13;;
78443;SDS011;67739;52.986;8.894;2023-11-21T08:35:39;6.85;;;2.72;;
78443;SDS011;67739;52.986;8.894;2023-11-21T08:38:04;8.35;;;3.15;;
78443;SDS011;67739;52.986;8.894;2023-11-21T08:40:30;6.72;;;2.88;;
78443;SDS011;67739;52.986;8.894;2023-11-21T08:42:55;7.90;;;3.63;;
78443;SDS011;67739;52.986;8.894;2023-11-21T08:45:21;10.75;;;3.83;;
78443;SDS011;67739;52.986;8.894;2023-11-21T08:47:47;8.80;;;3.00;;
78443;SDS011;67739;52.986;8.894;2023-11-21T08:50:13;10.50;;;2.70;;
78443;SDS011;67739;52.986;8.894;2023-11-21T08:52:39;8.75;;;2.13;;
78443;SDS011;67739;52.986;8.894;2023-11-21T08:55:06;9.43;;;3.30;;
78443;SDS011;67739;52.986;8.894;2023-11-21T08:57:37;7.82;;;2.70;;
78443;SDS011;67739;52.986;8.894;2023-11-21T09:00:07;10.63;;;3.50;;
78443;SDS011;67739;52.986;8.894;2023-11-21T09:02:36;6.93;;;2.38;;
78443;SDS011;67739;52.986;8.894;2023-11-21T09:05:02;10.35;;;2.72;;
78443;SDS011;67739;52.986;8.894;2023-11-21T09:07:31;7.80;;;3.35;;
78443;SDS011;67739;52.986;8.894;2023-11-21T09:09:56;13.65;;;3.22;;
78443;SDS011;67739;52.986;8.894;2023-11-21T09:12:22;8.07;;;2.75;;
78443;SDS011;67739;52.986;8.894;2023-11-21T09:14:47;9.68;;;2.55;;
78443;SDS011;67739;52.986;8.894;2023-11-21T09:17:13;11.13;;;3.25;;
78443;SDS011;67739;52.986;8.894;2023-11-21T09:19:39;7.72;;;3.05;;
78443;SDS011;67739;52.986;8.894;2023-11-21T09:22:05;11.63;;;3.08;;
78443;SDS011;67739;52.986;8.894;2023-11-21T09:24:31;8.75;;;3.58;;
78443;SDS011;67739;52.986;8.894;2023-11-21T09:26:57;6.32;;;2.55;;
78443;SDS011;67739;52.986;8.894;2023-11-21T09:29:22;8.65;;;3.03;;
78443;SDS011;67739;52.986;8.894;2023-11-21T09:31:48;9.15;;;3.28;;
78443;SDS011;67739;52.986;8.894;2023-11-21T09:34:16;10.70;;;3.13;;
78443;SDS011;67739;52.986;8.894;2023-11-21T09:36:41;7.78;;;2.63;;
78443;SDS011;67739;52.986;8.894;2023-11-21T09:39:10;8.65;;;2.60;;
78443;SDS011;67739;52.986;8.894;2023-11-21T09:41:51;7.93;;;3.15;;
78443;SDS011;67739;52.986;8.894;2023-11-21T09:44:22;8.18;;;2.95;;
78443;SDS011;67739;52.986;8.894;2023-11-21T09:46:58;8.13;;;2.53;;
78443;SDS011;67739;52.986;8.894;2023-11-21T09:49:24;10.07;;;2.67;;
78443;SDS011;67739;52.986;8.894;2023-11-21T09:51:51;7.85;;;2.95;;
78443;SDS011;67739;52.986;8.894;2023-11-21T09:54:20;9.43;;;3.75;;
78443;SDS011;67739;52.986;8.894;2023-11-21T09:56:46;8.25;;;3.15;;
78443;SDS011;67739;52.986;8.894;2023-11-21T09:59:13;8.35;;;3.55;;
78443;SDS011;67739;52.986;8.894;2023-11-21T10:01:40;12.13;;;3.17;;
78443;SDS011;67739;52.986;8.894;2023-11-21T10:04:07;7.78;;;2.60;;
78443;SDS011;67739;52.986;8.894;2023-11-21T10:06:39;6.38;;;2.60;;
78443;SDS011;67739;52.986;8.894;2023-11-21T10:09:11;8.30;;;2.53;;
78443;SDS011;67739;52.986;8.894;2023-11-21T10:11:41;6.75;;;3.28;;
78443;SDS011;67739;52.986;8.894;2023-11-21T10:14:07;9.38;;;3.60;;
78443;SDS011;67739;52.986;8.894;2023-11-21T10:16:35;7.82;;;2.53;;
78443;SDS011;67739;52.986;8.894;2023-11-21T10:19:02;9.25;;;3.25;;
78443;SDS011;67739;52.986;8.894;2023-11-21T10:21:29;6.72;;;2.13;;
78443;SDS011;67739;52.986;8.894;2023-11-21T10:23:55;10.27;;;3.47;;
78443;SDS011;67739;52.986;8.894;2023-11-21T10:26:20;7.47;;;3.17;;
78443;SDS011;67739;52.986;8.894;2023-11-21T10:28:55;8.93;;;3.70;;
78443;SDS011;67739;52.986;8.894;2023-11-21T10:31:22;7.53;;;2.95;;
78443;SDS011;67739;52.986;8.894;2023-11-21T10:33:49;8.15;;;3.08;;
78443;SDS011;67739;52.986;8.894;2023-11-21T10:36:23;7.32;;;2.97;;
78443;SDS011;67739;52.986;8.894;2023-11-21T10:38:51;5.45;;;2.05;;
78443;SDS011;67739;52.986;8.894;2023-11-21T10:41:18;9.13;;;3.42;;
78443;SDS011;67739;52.986;8.894;2023-11-21T10:43:43;6.50;;;2.38;;
78443;SDS011;67739;52.986;8.894;2023-11-21T10:46:09;8.32;;;3.28;;
78443;SDS011;67739;52.986;8.894;2023-11-21T10:48:34;8.75;;;3.40;;
78443;SDS011;67739;52.986;8.894;2023-11-21T10:51:00;7.57;;;3.35;;
78443;SDS011;67739;52.986;8.894;2023-11-21T10:53:32;7.57;;;2.55;;
78443;SDS011;67739;52.986;8.894;2023-11-21T10:56:02;7.72;;;3.25;;
78443;SDS011;67739;52.986;8.894;2023-11-21T11:01:02;5.45;;;2.17;;
78443;SDS011;67739;52.986;8.894;2023-11-21T11:03:31;4.90;;;2.03;;
78443;SDS011;67739;52.986;8.894;2023-11-21T11:05:58;5.85;;;2.22;;
78443;SDS011;67739;52.986;8.894;2023-11-21T11:08:24;7.10;;;2.72;;
78443;SDS011;67739;52.986;8.894;2023-11-21T11:10:51;9.93;;;3.83;;
78443;SDS011;67739;52.986;8.894;2023-11-21T11:13:17;8.95;;;3.50;;
78443;SDS011;67739;52.986;8.894;2023-11-21T11:15:43;7.15;;;2.20;;
78443;SDS011;67739;52.986;8.894;2023-11-21T11:18:12;10.90;;;4.07;;
78443;SDS011;67739;52.986;8.894;2023-11-21T11:20:38;9.20;;;3.88;;
78443;SDS011;67739;52.986;8.894;2023-11-21T11:28:38;6.43;;;2.70;;
78443;SDS011;67739;52.986;8.894;2023-11-21T11:34:22;10.13;;;3.90;;
78443;SDS011;67739;52.986;8.894;2023-11-21T11:36:56;7.80;;;3.42;;
78443;SDS011;67739;52.986;8.894;2023-11-21T11:39:36;7.47;;;2.83;;
78443;SDS011;67739;52.986;8.894;2023-11-21T11:42:04;6.10;;;2.00;;
78443;SDS011;67739;52.986;8.894;2023-11-21T11:47:30;8.35;;;2.90;;
78443;SDS011;67739;52.986;8.894;2023-11-21T11:50:09;9.98;;;4.25;;
78443;SDS011;67739;52.986;8.894;2023-11-21T11:52:45;7.00;;;3.13;;
78443;SDS011;67739;52.986;8.894;2023-11-21T11:55:15;8.02;;;3.10;;
78443;SDS011;67739;52.986;8.894;2023-11-21T11:57:47;8.60;;;3.75;;
78443;SDS011;67739;52.986;8.894;2023-11-21T12:00:19;10.23;;;3.85;;
78443;SDS011;67739;52.986;8.894;2023-11-21T12:02:53;7.45;;;2.70;;
78443;SDS011;67739;52.986;8.894;2023-11-21T12:05:21;7.25;;;3.35;;
78443;SDS011;67739;52.986;8.894;2023-11-21T12:07:54;9.77;;;4.00;;
78443;SDS011;67739;52.986;8.894;2023-11-21T12:10:25;10.45;;;4.80;;
78443;SDS011;67739;52.986;8.894;2023-11-21T12:12:58;7.75;;;3.22;;
78443;SDS011;67739;52.986;8.894;2023-11-21T12:15:32;8.48;;;3.75;;
78443;SDS011;67739;52.986;8.894;2023-11-21T12:18:00;5.80;;;2.58;;
78443;SDS011;67739;52.986;8.894;2023-11-21T12:20:26;6.10;;;2.00;;
78443;SDS011;67739;52.986;8.894;2023-11-21T12:22:53;6.68;;;2.60;;
78443;SDS011;67739;52.986;8.894;2023-11-21T12:25:23;6.05;;;2.17;;
78443;SDS011;67739;52.986;8.894;2023-11-21T12:27:50;9.00;;;3.05;;
78443;SDS011;67739;52.986;8.894;2023-11-21T12:30:17;7.65;;;2.85;;
78443;SDS011;67739;52.986;8.894;2023-11-21T12:32:45;6.32;;;1.85;;
78443;SDS011;67739;52.986;8.894;2023-11-21T12:35:14;6.63;;;2.65;;
78443;SDS011;67739;52.986;8.894;2023-11-21T12:37:40;6.60;;;2.38;;
78443;SDS011;67739;52.986;8.894;2023-11-21T12:40:10;5.38;;;2.13;;
78443;SDS011;67739;52.986;8.894;2023-11-21T12:42:46;6.45;;;2.22;;
78443;SDS011;67739;52.986;8.894;2023-11-21T12:47:52;7.57;;;3.03;;
78443;SDS011;67739;52.986;8.894;2023-11-21T12:50:20;7.80;;;1.88;;
78443;SDS011;67739;52.986;8.894;2023-11-21T12:52:49;7.93;;;2.90;;
78443;SDS011;67739;52.986;8.894;2023-11-21T12:55:19;8.13;;;2.88;;
78443;SDS011;67739;52.986;8.894;2023-11-21T12:57:51;6.07;;;2.13;;
78443;SDS011;67739;52.986;8.894;2023-11-21T13:00:33;5.80;;;2.03;;
78443;SDS011;67739;52.986;8.894;2023-11-21T13:03:02;10.85;;;2.72;;
78443;SDS011;67739;52.986;8.894;2023-11-21T13:08:04;5.63;;;1.77;;
78443;SDS011;67739;52.986;8.894;2023-11-21T13:10:33;6.72;;;3.10;;
78443;SDS011;67739;52.986;8.894;2023-11-21T13:13:01;5.07;;;1.92;;
78443;SDS011;67739;52.986;8.894;2023-11-21T13:15:30;7.13;;;2.30;;
78443;SDS011;67739;52.986;8.894;2023-11-21T13:17:57;5.88;;;1.95;;
78443;SDS011;67739;52.986;8.894;2023-11-21T13:20:23;5.55;;;1.92;;
78443;SDS011;67739;52.986;8.894;2023-11-21T13:22:54;7.22;;;2.95;;
78443;SDS011;67739;52.986;8.894;2023-11-21T13:25:24;5.28;;;1.83;;
78443;SDS011;67739;52.986;8.894;2023-11-21T13:27:52;6.55;;;2.10;;
78443;SDS011;67739;52.986;8.894;2023-11-21T13:30:21;6.85;;;1.83;;
78443;SDS011;67739;52.986;8.894;2023-11-21T13:32:54;5.35;;;1.90;;
78443;SDS011;67739;52.986;8.894;2023-11-21T13:35:22;6.50;;;1.67;;
78443;SDS011;67739;52.986;8.894;2023-11-21T13:38:10;5.40;;;1.67;;
78443;SDS011;67739;52.986;8.894;2023-11-21T13:40:39;4.38;;;1.45;;
78443;SDS011;67739;52.986;8.894;2023-11-21T13:43:09;7.28;;;2.47;;
78443;SDS011;67739;52.986;8.894;2023-11-21T13:45:37;8.15;;;1.48;;
78443;SDS011;67739;52.986;8.894;2023-11-21T13:48:04;4.97;;;1.60;;
78443;SDS011;67739;52.986;8.894;2023-11-21T13:50:35;4.68;;;1.67;;
78443;SDS011;67739;52.986;8.894;2023-11-21T13:53:01;5.13;;;1.60;;
78443;SDS011;67739;52.986;8.894;2023-11-21T13:55:35;3.90;;;1.20;;
78443;SDS011;67739;52.986;8.894;2023-11-21T13:58:01;4.80;;;1.08;;
78443;SDS011;67739;52.986;8.894;2023-11-21T14:00:34;4.63;;;1.33;;
78443;SDS011;67739;52.986;8.894;2023-11-21T14:03:11;4.00;;;0.80;;
78443;SDS011;67739;52.986;8.894;2023-11-21T14:05:45;3.35;;;0.88;;
78443;SDS011;67739;52.986;8.894;2023-11-21T14:08:20;3.78;;;1.42;;
78443;SDS011;67739;52.986;8.894;2023-11-21T14:10:47;6.03;;;1.75;;
78443;SDS011;67739;52.986;8.894;2023-11-21T14:13:22;5.25;;;1.52;;
78443;SDS011;67739;52.986;8.894;2023-11-21T14:15:49;3.35;;;0.90;;
78443;SDS011;67739;52.986;8.894;2023-11-21T14:18:27;4.88;;;1.48;;
78443;SDS011;67739;52.986;8.894;2023-11-21T14:21:01;3.65;;;1.33;;
78443;SDS011;67739;52.986;8.894;2023-11-21T14:23:26;7.20;;;1.58;;
78443;SDS011;67739;52.986;8.894;2023-11-21T14:25:53;2.92;;;0.73;;
78443;SDS011;67739;52.986;8.894;2023-11-21T14:28:18;4.80;;;1.65;;
78443;SDS011;67739;52.986;8.894;2023-11-21T14:30:45;4.88;;;0.90;;
78443;SDS011;67739;52.986;8.894;2023-11-21T14:33:11;3.95;;;1.73;;
78443;SDS011;67739;52.986;8.894;2023-11-21T14:35:37;5.28;;;1.35;;
78443;SDS011;67739;52.986;8.894;2023-11-21T14:38:02;4.45;;;1.40;;
78443;SDS011;67739;52.986;8.894;2023-11-21T14:40:30;4.90;;;1.25;;
78443;SDS011;67739;52.986;8.894;2023-11-21T14:42:59;4.75;;;1.20;;
78443;SDS011;67739;52.986;8.894;2023-11-21T14:45:25;3.67;;;1.42;;
78443;SDS011;67739;52.986;8.894;2023-11-21T14:47:51;2.65;;;0.90;;
78443;SDS011;67739;52.986;8.894;2023-11-21T14:50:41;3.40;;;1.00;;
78443;SDS011;67739;52.986;8.894;2023-11-21T14:53:07;3.92;;;1.00;;
78443;SDS011;67739;52.986;8.894;2023-11-21T14:55:34;3.38;;;1.00;;
78443;SDS011;67739;52.986;8.894;2023-11-21T14:58:06;3.10;;;1.05;;
78443;SDS011;67739;52.986;8.894;2023-11-21T15:00:35;1.85;;;0.45;;
78443;SDS011;67739;52.986;8.894;2023-11-21T15:03:04;3.60;;;0.73;;
78443;SDS011;67739;52.986;8.894;2023-11-21T15:05:30;3.88;;;1.05;;
78443;SDS011;67739;52.986;8.894;2023-11-21T15:07:56;3.35;;;1.08;;